createdAt,value
2017-11-26T00:00:31.880Z,0
2017-11-26T00:01:41.616Z,0
2017-11-26T00:02:51.636Z,0
2017-11-26T00:04:01.648Z,0
2017-11-26T00:05:11.389Z,0
2017-11-26T00:06:21.396Z,0
2017-11-26T00:07:31.398Z,0
2017-11-26T00:08:41.399Z,0
2017-11-26T00:09:51.465Z,0
2017-11-26T00:11:01.473Z,0
2017-11-26T00:12:11.472Z,0
2017-11-26T00:13:21.485Z,0
2017-11-26T00:14:31.494Z,0
2017-11-26T00:15:41.499Z,0
2017-11-26T00:16:51.513Z,0
2017-11-26T00:18:01.518Z,0
2017-11-26T00:19:11.559Z,0
2017-11-26T00:20:21.327Z,0
2017-11-26T00:21:31.435Z,0
2017-11-26T00:22:41.446Z,0
2017-11-26T00:23:51.453Z,0
2017-11-26T00:25:01.493Z,0
2017-11-26T00:26:11.526Z,0
2017-11-26T00:27:21.556Z,0
2017-11-26T00:28:31.570Z,0
2017-11-26T00:29:41.573Z,0
2017-11-26T00:30:51.576Z,0
2017-11-26T00:32:01.593Z,0
2017-11-26T00:33:11.058Z,0
2017-11-26T00:34:21.068Z,0
2017-11-26T00:35:30.809Z,0
2017-11-26T00:36:40.816Z,0
2017-11-26T00:37:50.826Z,0
2017-11-26T00:39:00.832Z,0
2017-11-26T00:40:10.567Z,0
2017-11-26T00:41:20.308Z,0
2017-11-26T00:42:30.333Z,0
2017-11-26T00:43:39.811Z,0
2017-11-26T00:44:49.832Z,0
2017-11-26T00:45:59.880Z,0
2017-11-26T00:47:09.912Z,0
2017-11-26T00:48:19.915Z,0
2017-11-26T00:49:29.111Z,0
2017-11-26T00:50:39.118Z,0
2017-11-26T00:51:48.858Z,0
2017-11-26T00:52:58.590Z,0
2017-11-26T00:54:08.321Z,0
2017-11-26T00:55:18.367Z,0
2017-11-26T00:56:28.110Z,0
2017-11-26T00:57:38.122Z,0
2017-11-26T00:58:48.135Z,0
2017-11-26T00:59:57.887Z,0
2017-11-26T01:01:07.892Z,0
2017-11-26T01:02:19.635Z,0
2017-11-26T01:03:29.640Z,0
2017-11-26T01:04:39.656Z,0
2017-11-26T01:05:49.677Z,0
2017-11-26T01:06:59.697Z,0
2017-11-26T01:08:09.737Z,0
2017-11-26T01:09:19.767Z,0
2017-11-26T01:10:29.790Z,0
2017-11-26T01:11:39.799Z,0
2017-11-26T01:12:49.853Z,0
2017-11-26T01:13:59.869Z,0
2017-11-26T01:15:09.610Z,0
2017-11-26T01:16:19.619Z,0
2017-11-26T01:17:29.359Z,0
2017-11-26T01:18:39.366Z,0
2017-11-26T01:19:49.374Z,0
2017-11-26T01:20:59.105Z,0
2017-11-26T01:22:08.845Z,0
2017-11-26T01:23:18.313Z,0
2017-11-26T01:24:28.328Z,0
2017-11-26T01:25:38.335Z,0
2017-11-26T01:26:48.342Z,0
2017-11-26T01:27:58.362Z,0
2017-11-26T01:29:08.104Z,0
2017-11-26T01:30:18.119Z,0
2017-11-26T01:31:28.122Z,0
2017-11-26T01:32:37.591Z,0
2017-11-26T01:33:47.616Z,0
2017-11-26T01:34:57.625Z,0
2017-11-26T01:36:07.362Z,0
2017-11-26T01:37:17.099Z,0
2017-11-26T01:38:27.100Z,0
2017-11-26T01:39:36.863Z,0
2017-11-26T01:40:46.606Z,0
2017-11-26T01:41:56.615Z,0
2017-11-26T01:43:06.615Z,0
2017-11-26T01:44:16.352Z,0
2017-11-26T01:45:26.365Z,0
2017-11-26T01:46:36.102Z,0
2017-11-26T01:47:46.109Z,0
2017-11-26T01:48:56.125Z,0
2017-11-26T01:50:06.141Z,0
2017-11-26T01:51:16.144Z,0
2017-11-26T01:52:26.197Z,0
2017-11-26T01:53:36.221Z,0
2017-11-26T01:54:46.239Z,0
2017-11-26T01:55:56.267Z,0
2017-11-26T01:57:05.735Z,0
2017-11-26T01:58:15.777Z,0
2017-11-26T01:59:25.808Z,0
2017-11-26T02:00:35.815Z,0
2017-11-26T02:01:45.561Z,0
2017-11-26T02:02:55.572Z,0
2017-11-26T02:04:05.607Z,0
2017-11-26T02:05:15.350Z,0
2017-11-26T02:06:25.356Z,0
2017-11-26T02:07:35.356Z,0
2017-11-26T02:08:45.368Z,0
2017-11-26T02:09:55.410Z,0
2017-11-26T02:11:05.430Z,0
2017-11-26T02:12:15.436Z,0
2017-11-26T02:13:25.459Z,0
2017-11-26T02:14:35.467Z,0
2017-11-26T02:15:45.210Z,0
2017-11-26T02:16:54.959Z,0
2017-11-26T02:18:04.697Z,0
2017-11-26T02:19:14.713Z,0
2017-11-26T02:20:24.731Z,0
2017-11-26T02:21:34.739Z,0
2017-11-26T02:22:44.752Z,0
2017-11-26T02:23:54.772Z,0
2017-11-26T02:25:04.525Z,0
2017-11-26T02:26:14.537Z,0
2017-11-26T02:27:24.570Z,0
2017-11-26T02:28:34.583Z,0
2017-11-26T02:29:44.591Z,0
2017-11-26T02:30:54.606Z,0
2017-11-26T02:32:04.639Z,0
2017-11-26T02:33:14.654Z,0
2017-11-26T02:34:24.665Z,0
2017-11-26T02:35:34.733Z,0
2017-11-26T02:36:44.741Z,0
2017-11-26T02:37:54.764Z,0
2017-11-26T02:39:04.810Z,0
2017-11-26T02:40:14.843Z,0
2017-11-26T02:41:25.172Z,0
2017-11-26T02:42:35.216Z,0
2017-11-26T02:43:45.257Z,0
2017-11-26T02:44:55.296Z,0
2017-11-26T02:46:05.045Z,0
2017-11-26T02:47:14.808Z,0
2017-11-26T02:48:24.836Z,0
2017-11-26T02:49:34.842Z,0
2017-11-26T02:50:44.855Z,0
2017-11-26T02:51:54.632Z,0
2017-11-26T02:53:04.659Z,0
2017-11-26T02:54:14.681Z,0
2017-11-26T02:55:24.706Z,0
2017-11-26T02:56:34.721Z,0
2017-11-26T02:57:44.730Z,0
2017-11-26T02:58:54.763Z,0
2017-11-26T03:00:04.780Z,0
2017-11-26T03:01:14.821Z,0
2017-11-26T03:02:24.837Z,0
2017-11-26T03:03:34.862Z,0
2017-11-26T03:04:44.377Z,0
2017-11-26T03:05:54.123Z,0
2017-11-26T03:07:04.131Z,0
2017-11-26T03:08:14.136Z,0
2017-11-26T03:09:24.140Z,0
2017-11-26T03:10:37.901Z,0
2017-11-26T03:11:47.906Z,0
2017-11-26T03:12:57.907Z,0
2017-11-26T03:14:07.652Z,0
2017-11-26T03:15:17.666Z,0
2017-11-26T03:16:27.998Z,0
2017-11-26T03:17:38.015Z,0
2017-11-26T03:18:48.034Z,0
2017-11-26T03:19:57.772Z,0
2017-11-26T03:21:07.509Z,0
2017-11-26T03:22:17.562Z,0
2017-11-26T03:23:27.576Z,0
2017-11-26T03:24:37.590Z,0
2017-11-26T03:25:47.610Z,0
2017-11-26T03:26:57.620Z,0
2017-11-26T03:28:09.631Z,0
2017-11-26T03:29:19.372Z,0
2017-11-26T03:30:29.392Z,0
2017-11-26T03:31:39.144Z,0
2017-11-26T03:32:49.159Z,0
2017-11-26T03:33:59.225Z,0
2017-11-26T03:35:09.236Z,0
2017-11-26T03:36:19.240Z,0
2017-11-26T03:37:28.975Z,0
2017-11-26T03:38:38.982Z,0
2017-11-26T03:39:49.019Z,0
2017-11-26T03:40:59.034Z,0
2017-11-26T03:42:09.046Z,0
2017-11-26T03:43:19.052Z,0
2017-11-26T03:44:29.060Z,0
2017-11-26T03:45:39.064Z,0
2017-11-26T03:46:49.085Z,0
2017-11-26T03:47:58.822Z,0
2017-11-26T03:49:08.832Z,0
2017-11-26T03:50:18.838Z,0
2017-11-26T03:51:28.583Z,0
2017-11-26T03:52:38.597Z,0
2017-11-26T03:53:48.615Z,0
2017-11-26T03:54:58.627Z,0
2017-11-26T03:56:08.631Z,0
2017-11-26T03:57:18.651Z,0
2017-11-26T03:58:28.389Z,0
2017-11-26T03:59:38.401Z,0
2017-11-26T04:03:28.527Z,0
2017-11-26T04:04:38.539Z,0
2017-11-26T04:05:48.560Z,0
2017-11-26T04:06:58.565Z,0
2017-11-26T04:08:08.570Z,0
2017-11-26T04:09:18.575Z,0
2017-11-26T04:10:28.586Z,0
2017-11-26T04:11:38.600Z,0
2017-11-26T04:12:48.373Z,0
2017-11-26T04:13:58.377Z,0
2017-11-26T04:15:08.385Z,0
2017-11-26T04:16:18.407Z,0
2017-11-26T04:17:28.436Z,0
2017-11-26T04:18:38.457Z,0
2017-11-26T04:19:48.464Z,0
2017-11-26T04:20:58.481Z,0
2017-11-26T04:22:08.513Z,0
2017-11-26T04:23:18.527Z,0
2017-11-26T04:24:28.558Z,0
2017-11-26T04:25:38.565Z,0
2017-11-26T04:26:48.584Z,0
2017-11-26T04:27:58.618Z,0
2017-11-26T04:29:08.628Z,0
2017-11-26T04:30:18.644Z,0
2017-11-26T04:31:28.649Z,0
2017-11-26T04:32:38.667Z,0
2017-11-26T04:33:48.674Z,0
2017-11-26T04:34:58.409Z,0
2017-11-26T04:36:08.421Z,0
2017-11-26T04:37:18.154Z,0
2017-11-26T04:38:28.237Z,0
2017-11-26T04:39:37.979Z,0
2017-11-26T04:40:47.994Z,0
2017-11-26T04:41:57.729Z,0
2017-11-26T04:43:07.462Z,0
2017-11-26T04:44:17.476Z,0
2017-11-26T04:45:27.497Z,0
2017-11-26T04:46:37.519Z,0
2017-11-26T04:47:47.533Z,0
2017-11-26T04:48:57.571Z,0
2017-11-26T04:50:07.312Z,0
2017-11-26T04:51:17.347Z,0
2017-11-26T04:52:27.349Z,0
2017-11-26T04:53:37.352Z,0
2017-11-26T04:54:47.378Z,0
2017-11-26T04:55:57.388Z,0
2017-11-26T04:57:07.413Z,0
2017-11-26T04:58:17.420Z,0
2017-11-26T04:59:27.424Z,0
2017-11-26T05:00:37.449Z,0
2017-11-26T05:01:47.462Z,0
2017-11-26T05:02:57.483Z,0
2017-11-26T05:04:07.495Z,0
2017-11-26T05:05:16.967Z,0
2017-11-26T05:06:26.974Z,0
2017-11-26T05:07:36.993Z,0
2017-11-26T05:08:47.039Z,0
2017-11-26T05:09:57.045Z,0
2017-11-26T05:11:07.056Z,0
2017-11-26T05:12:17.061Z,0
2017-11-26T05:13:27.075Z,0
2017-11-26T05:14:37.091Z,0
2017-11-26T05:15:47.103Z,0
2017-11-26T05:16:57.105Z,0
2017-11-26T05:18:07.122Z,0
2017-11-26T05:19:17.128Z,0
2017-11-26T05:20:27.148Z,0
2017-11-26T05:21:37.167Z,0
2017-11-26T05:22:47.172Z,0
2017-11-26T05:23:56.918Z,0
2017-11-26T05:25:06.657Z,0
2017-11-26T05:26:16.670Z,0
2017-11-26T05:27:26.679Z,0
2017-11-26T05:28:36.423Z,0
2017-11-26T05:29:46.435Z,0
2017-11-26T05:30:56.494Z,0
2017-11-26T05:32:06.504Z,0
2017-11-26T05:33:16.520Z,0
2017-11-26T05:34:26.548Z,0
2017-11-26T05:35:36.561Z,0
2017-11-26T05:36:46.574Z,0
2017-11-26T05:37:56.312Z,0
2017-11-26T05:39:06.325Z,0
2017-11-26T05:40:16.075Z,0
2017-11-26T05:41:26.096Z,0
2017-11-26T05:42:36.114Z,0
2017-11-26T05:43:46.121Z,0
2017-11-26T05:44:56.140Z,0
2017-11-26T05:46:06.161Z,0
2017-11-26T05:47:15.901Z,0
2017-11-26T05:48:25.903Z,0
2017-11-26T05:49:35.913Z,0
2017-11-26T05:50:45.924Z,0
2017-11-26T05:51:55.667Z,0
2017-11-26T05:53:05.693Z,0
2017-11-26T05:54:15.698Z,0
2017-11-26T05:55:25.457Z,0
2017-11-26T05:56:35.476Z,0
2017-11-26T05:57:45.495Z,0
2017-11-26T05:58:55.502Z,0
2017-11-26T06:00:05.512Z,0
2017-11-26T06:01:15.520Z,0
2017-11-26T06:02:25.542Z,0
2017-11-26T06:03:35.552Z,0
2017-11-26T06:04:45.291Z,0
2017-11-26T06:05:55.296Z,0
2017-11-26T06:07:05.340Z,0
2017-11-26T06:08:15.393Z,0
2017-11-26T06:09:25.406Z,0
2017-11-26T06:10:35.419Z,0
2017-11-26T06:11:45.444Z,0
2017-11-26T06:12:55.473Z,0
2017-11-26T06:14:05.496Z,0
2017-11-26T06:15:15.507Z,0
2017-11-26T06:16:25.519Z,0
2017-11-26T06:17:35.532Z,0
2017-11-26T06:18:45.556Z,0
2017-11-26T06:19:55.296Z,0
2017-11-26T06:21:05.312Z,0
2017-11-26T06:22:15.329Z,0
2017-11-26T06:23:25.348Z,0
2017-11-26T06:24:35.414Z,0
2017-11-26T06:25:45.165Z,0
2017-11-26T06:26:55.174Z,0
2017-11-26T06:28:05.183Z,0
2017-11-26T06:29:15.185Z,0
2017-11-26T06:30:24.923Z,0
2017-11-26T06:31:34.930Z,0
2017-11-26T06:32:44.732Z,0
2017-11-26T06:33:54.743Z,0
2017-11-26T06:35:04.493Z,0
2017-11-26T06:36:14.501Z,0
2017-11-26T06:37:24.529Z,0
2017-11-26T06:38:34.535Z,0
2017-11-26T06:39:44.550Z,0
2017-11-26T06:40:54.649Z,0
2017-11-26T06:42:04.671Z,0
2017-11-26T06:43:14.414Z,0
2017-11-26T06:44:24.436Z,0
2017-11-26T06:45:34.441Z,0
2017-11-26T06:46:44.181Z,0
2017-11-26T06:47:54.195Z,0
2017-11-26T06:49:04.206Z,0
2017-11-26T06:50:14.252Z,0
2017-11-26T06:51:24.275Z,0
2017-11-26T06:52:34.286Z,0
2017-11-26T06:53:44.297Z,0
2017-11-26T06:54:54.311Z,0
2017-11-26T06:56:04.048Z,0
2017-11-26T06:57:13.510Z,4
2017-11-26T06:58:23.529Z,4
2017-11-26T06:59:33.557Z,0
2017-11-26T07:00:43.028Z,0
2017-11-26T07:01:53.047Z,4
2017-11-26T07:03:02.791Z,0
2017-11-26T07:04:12.806Z,4
2017-11-26T07:05:22.820Z,4
2017-11-26T07:06:32.837Z,4
2017-11-26T07:07:42.574Z,4
2017-11-26T07:08:52.599Z,8
2017-11-26T07:10:02.616Z,4
2017-11-26T07:11:12.353Z,4
2017-11-26T07:12:22.382Z,8
2017-11-26T07:13:32.394Z,8
2017-11-26T07:14:42.438Z,12
2017-11-26T07:15:52.464Z,16
2017-11-26T07:17:02.535Z,16
2017-11-26T07:18:12.282Z,20
2017-11-26T07:19:22.295Z,16
2017-11-26T07:20:32.311Z,20
2017-11-26T07:21:42.333Z,24
2017-11-26T07:22:52.071Z,24
2017-11-26T07:24:01.814Z,28
2017-11-26T07:25:11.825Z,32
2017-11-26T07:26:21.836Z,40
2017-11-26T07:27:31.576Z,40
2017-11-26T07:28:41.603Z,48
2017-11-26T07:29:51.657Z,56
2017-11-26T07:31:01.393Z,60
2017-11-26T07:32:11.412Z,68
2017-11-26T07:33:21.463Z,76
2017-11-26T07:34:31.203Z,84
2017-11-26T07:35:41.222Z,92
2017-11-26T07:36:50.965Z,104
2017-11-26T07:38:00.976Z,112
2017-11-26T07:39:10.982Z,124
2017-11-26T07:40:20.730Z,132
2017-11-26T07:41:30.738Z,144
2017-11-26T07:42:40.770Z,156
2017-11-26T07:43:50.518Z,168
2017-11-26T07:45:00.524Z,176
2017-11-26T07:46:10.536Z,188
2017-11-26T07:47:20.566Z,204
2017-11-26T07:48:30.573Z,224
2017-11-26T07:49:40.589Z,240
2017-11-26T07:50:50.598Z,264
2017-11-26T07:52:00.610Z,288
2017-11-26T07:53:10.356Z,316
2017-11-26T07:54:20.389Z,344
2017-11-26T07:55:30.402Z,368
2017-11-26T07:56:40.422Z,400
2017-11-26T07:57:50.444Z,428
2017-11-26T07:58:59.918Z,456
2017-11-26T08:00:09.927Z,484
2017-11-26T08:01:19.974Z,516
2017-11-26T08:02:29.982Z,544
2017-11-26T08:03:40.015Z,568
2017-11-26T08:04:50.040Z,592
2017-11-26T08:06:00.052Z,628
2017-11-26T08:07:09.523Z,660
2017-11-26T08:08:19.529Z,696
2017-11-26T08:09:29.549Z,728
2017-11-26T08:10:39.558Z,756
2017-11-26T08:11:49.561Z,772
2017-11-26T08:12:59.565Z,792
2017-11-26T08:14:09.308Z,812
2017-11-26T08:15:19.332Z,808
2017-11-26T08:16:29.356Z,804
2017-11-26T08:17:39.369Z,828
2017-11-26T08:18:49.369Z,876
2017-11-26T08:19:59.110Z,936
2017-11-26T08:21:09.132Z,1008
2017-11-26T08:22:19.140Z,1072
2017-11-26T08:23:28.876Z,1128
2017-11-26T08:24:38.621Z,1168
2017-11-26T08:25:48.363Z,1196
2017-11-26T08:26:58.370Z,1228
2017-11-26T08:28:08.392Z,1280
2017-11-26T08:29:18.397Z,1328
2017-11-26T08:30:28.131Z,1328
2017-11-26T08:31:38.151Z,1248
2017-11-26T08:32:48.170Z,1188
2017-11-26T08:33:58.182Z,1184
2017-11-26T08:35:07.918Z,1196
2017-11-26T08:36:17.932Z,1224
2017-11-26T08:37:27.413Z,1248
2017-11-26T08:38:37.419Z,1272
2017-11-26T08:39:47.434Z,1312
2017-11-26T08:40:57.198Z,1392
2017-11-26T08:42:07.207Z,1468
2017-11-26T08:43:17.225Z,1500
2017-11-26T08:44:26.979Z,1492
2017-11-26T08:45:36.987Z,1476
2017-11-26T08:46:47.005Z,1468
2017-11-26T08:47:57.027Z,1440
2017-11-26T08:49:07.041Z,1432
2017-11-26T08:50:16.537Z,1468
2017-11-26T08:51:26.589Z,1488
2017-11-26T08:52:36.601Z,1508
2017-11-26T08:53:46.348Z,1512
2017-11-26T08:54:56.369Z,1496
2017-11-26T08:56:06.374Z,1516
2017-11-26T08:57:16.388Z,1524
2017-11-26T08:58:26.129Z,1540
2017-11-26T08:59:36.153Z,1548
2017-11-26T09:00:46.192Z,1560
2017-11-26T09:01:56.202Z,1576
2017-11-26T09:03:06.213Z,1592
2017-11-26T09:04:16.257Z,1652
2017-11-26T09:05:25.997Z,1700
2017-11-26T09:06:35.734Z,1768
2017-11-26T09:07:45.199Z,1872
2017-11-26T09:08:55.209Z,1940
2017-11-26T09:10:05.220Z,2000
2017-11-26T09:11:15.221Z,2048
2017-11-26T09:12:25.279Z,2104
2017-11-26T09:13:35.344Z,2240
2017-11-26T09:14:45.353Z,2276
2017-11-26T09:15:55.371Z,2256
2017-11-26T09:17:04.638Z,2296
2017-11-26T09:18:14.388Z,2324
2017-11-26T09:19:24.451Z,2424
2017-11-26T09:20:34.457Z,2452
2017-11-26T09:21:44.200Z,2448
2017-11-26T09:22:54.240Z,2496
2017-11-26T09:24:03.974Z,2536
2017-11-26T09:25:13.174Z,2572
2017-11-26T09:26:22.370Z,2560
2017-11-26T09:27:32.381Z,2552
2017-11-26T09:28:42.423Z,2576
2017-11-26T09:29:52.433Z,2592
2017-11-26T09:31:02.469Z,2568
2017-11-26T09:32:12.472Z,2520
2017-11-26T09:33:22.484Z,2484
2017-11-26T09:34:32.230Z,2484
2017-11-26T09:35:41.981Z,2504
2017-11-26T09:36:51.718Z,2532
2017-11-26T09:38:01.724Z,2564
2017-11-26T09:39:11.489Z,2648
2017-11-26T09:40:21.490Z,2744
2017-11-26T09:41:31.534Z,2844
2017-11-26T09:42:41.562Z,2952
2017-11-26T09:43:51.584Z,3036
2017-11-26T09:45:01.599Z,3104
2017-11-26T09:46:11.365Z,3188
2017-11-26T09:47:21.375Z,3296
2017-11-26T09:48:31.119Z,3404
2017-11-26T09:49:41.127Z,3492
2017-11-26T09:50:50.866Z,3560
2017-11-26T09:52:00.606Z,3560
2017-11-26T09:53:10.357Z,3540
2017-11-26T09:54:20.398Z,3548
2017-11-26T09:55:30.426Z,3540
2017-11-26T09:56:40.458Z,3508
2017-11-26T09:57:49.926Z,3488
2017-11-26T09:58:59.936Z,3460
2017-11-26T10:00:09.968Z,3412
2017-11-26T10:01:19.979Z,3380
2017-11-26T10:02:30.000Z,3348
2017-11-26T10:03:40.022Z,3324
2017-11-26T10:04:50.030Z,3316
2017-11-26T10:05:59.499Z,3308
2017-11-26T10:07:09.508Z,3340
2017-11-26T10:08:19.526Z,3480
2017-11-26T10:09:29.544Z,3552
2017-11-26T10:10:39.017Z,3412
2017-11-26T10:11:49.037Z,3308
2017-11-26T10:12:59.042Z,3212
2017-11-26T10:14:09.061Z,3168
2017-11-26T10:15:19.081Z,3112
2017-11-26T10:16:29.119Z,3028
2017-11-26T10:17:39.164Z,2956
2017-11-26T10:18:49.170Z,2900
2017-11-26T10:19:59.177Z,2864
2017-11-26T10:21:08.918Z,2832
2017-11-26T10:22:18.926Z,2776
2017-11-26T10:23:28.941Z,2688
2017-11-26T10:24:38.709Z,2572
2017-11-26T10:25:48.449Z,2452
2017-11-26T10:26:58.462Z,2332
2017-11-26T10:28:08.472Z,2264
2017-11-26T10:29:18.232Z,2236
2017-11-26T10:30:28.266Z,2216
2017-11-26T10:31:37.742Z,2184
2017-11-26T10:32:47.769Z,2144
2017-11-26T10:33:57.776Z,2104
2017-11-26T10:35:07.785Z,2068
2017-11-26T10:36:17.797Z,2056
2017-11-26T10:37:27.812Z,2064
2017-11-26T10:38:37.285Z,2104
2017-11-26T10:39:47.292Z,2180
2017-11-26T10:40:57.306Z,2276
2017-11-26T10:42:07.041Z,2332
2017-11-26T10:43:17.065Z,2376
2017-11-26T10:44:27.095Z,2372
2017-11-26T10:45:36.837Z,2412
2017-11-26T10:46:46.579Z,2432
2017-11-26T10:47:56.320Z,2452
2017-11-26T10:49:06.057Z,2472
2017-11-26T10:50:16.078Z,2516
2017-11-26T10:51:26.163Z,2612
2017-11-26T10:52:35.901Z,2772
2017-11-26T10:53:45.667Z,2920
2017-11-26T10:54:55.414Z,2992
2017-11-26T10:56:05.427Z,2992
2017-11-26T10:57:15.434Z,2964
2017-11-26T10:58:25.455Z,2912
2017-11-26T10:59:35.249Z,2904
2017-11-26T11:00:44.967Z,2896
2017-11-26T11:01:55.021Z,2928
2017-11-26T11:03:04.767Z,3028
2017-11-26T11:04:14.516Z,3064
2017-11-26T11:05:24.531Z,3204
2017-11-26T11:06:34.276Z,3372
2017-11-26T11:07:44.032Z,3460
2017-11-26T11:08:53.774Z,3524
2017-11-26T11:10:03.793Z,3512
2017-11-26T11:11:13.268Z,3588
2017-11-26T11:12:23.273Z,3732
2017-11-26T11:13:33.016Z,3820
2017-11-26T11:14:42.487Z,3864
2017-11-26T11:15:52.497Z,3856
2017-11-26T11:17:02.539Z,3856
2017-11-26T11:18:12.579Z,3832
2017-11-26T11:19:22.649Z,3764
2017-11-26T11:20:32.661Z,3700
2017-11-26T11:21:42.405Z,3716
2017-11-26T11:22:52.420Z,3772
2017-11-26T11:24:02.435Z,3828
2017-11-26T11:25:12.181Z,3896
2017-11-26T11:26:21.924Z,3992
2017-11-26T11:27:31.931Z,4052
2017-11-26T11:28:41.941Z,4052
2017-11-26T11:29:51.965Z,4104
2017-11-26T11:31:01.973Z,4268
2017-11-26T11:32:11.992Z,4468
2017-11-26T11:33:22.010Z,4472
2017-11-26T11:34:32.028Z,4428
2017-11-26T11:35:42.041Z,4360
2017-11-26T11:36:52.052Z,4368
2017-11-26T11:38:01.798Z,4472
2017-11-26T11:39:11.809Z,4748
2017-11-26T11:40:21.836Z,4936
2017-11-26T11:41:31.582Z,4840
2017-11-26T11:42:41.590Z,4676
2017-11-26T11:43:51.364Z,4412
2017-11-26T11:45:01.376Z,4212
2017-11-26T11:46:11.400Z,4168
2017-11-26T11:47:21.137Z,4108
2017-11-26T11:48:30.879Z,3956
2017-11-26T11:49:40.631Z,3800
2017-11-26T11:50:50.646Z,3696
2017-11-26T11:52:00.667Z,3708
2017-11-26T11:53:10.675Z,3792
2017-11-26T11:54:20.696Z,3784
2017-11-26T11:55:30.706Z,3700
2017-11-26T11:56:40.724Z,3628
2017-11-26T11:57:50.190Z,3612
2017-11-26T11:58:59.668Z,3524
2017-11-26T12:00:09.700Z,3404
2017-11-26T12:01:19.716Z,3292
2017-11-26T12:02:29.727Z,3124
2017-11-26T12:03:39.744Z,2988
2017-11-26T12:04:49.765Z,2880
2017-11-26T12:05:59.775Z,2808
2017-11-26T12:07:11.264Z,2764
2017-11-26T12:08:21.010Z,2732
2017-11-26T12:09:31.027Z,2696
2017-11-26T12:10:41.039Z,2648
2017-11-26T12:11:51.092Z,2568
2017-11-26T12:13:01.104Z,2492
2017-11-26T12:14:10.844Z,2436
2017-11-26T12:15:20.858Z,2392
2017-11-26T12:16:30.875Z,2388
2017-11-26T12:17:40.613Z,2420
2017-11-26T12:18:50.618Z,2444
2017-11-26T12:20:00.652Z,2440
2017-11-26T12:21:10.658Z,2400
2017-11-26T12:22:20.694Z,2328
2017-11-26T12:23:30.434Z,2292
2017-11-26T12:24:39.915Z,2236
2017-11-26T12:25:49.932Z,2196
2017-11-26T12:26:59.955Z,2340
2017-11-26T12:28:09.989Z,2492
2017-11-26T12:29:19.750Z,2472
2017-11-26T12:30:29.504Z,2588
2017-11-26T12:31:39.532Z,2600
2017-11-26T12:32:49.286Z,2556
2017-11-26T12:33:59.321Z,2504
2017-11-26T12:35:09.064Z,2416
2017-11-26T12:36:19.108Z,2276
2017-11-26T12:37:28.846Z,2244
2017-11-26T12:38:38.868Z,2256
2017-11-26T12:39:48.887Z,2296
2017-11-26T12:40:58.897Z,2408
2017-11-26T12:42:12.929Z,2484
2017-11-26T12:43:22.677Z,2628
2017-11-26T12:44:32.697Z,2932
2017-11-26T12:45:42.756Z,3124
2017-11-26T12:46:52.776Z,3124
2017-11-26T12:48:02.260Z,3280
2017-11-26T12:49:12.280Z,3308
2017-11-26T12:50:22.291Z,2960
2017-11-26T12:51:32.298Z,3148
2017-11-26T12:52:42.304Z,2740
2017-11-26T12:53:52.354Z,2688
2017-11-26T12:55:02.378Z,2620
2017-11-26T12:56:12.394Z,2712
2017-11-26T12:57:22.426Z,2384
2017-11-26T12:58:32.168Z,1868
2017-11-26T12:59:41.911Z,1664
2017-11-26T13:00:51.928Z,1568
2017-11-26T13:02:01.395Z,1324
2017-11-26T13:03:11.156Z,1180
2017-11-26T13:04:20.905Z,1108
2017-11-26T13:05:30.975Z,1088
2017-11-26T13:06:41.031Z,1224
2017-11-26T13:07:50.786Z,1256
2017-11-26T13:09:00.846Z,1328
2017-11-26T13:10:10.858Z,1248
2017-11-26T13:11:20.879Z,1180
2017-11-26T13:12:30.894Z,1216
2017-11-26T13:13:40.912Z,1128
2017-11-26T13:14:50.937Z,1124
2017-11-26T13:16:00.949Z,1100
2017-11-26T13:17:10.964Z,988
2017-11-26T13:18:20.703Z,852
2017-11-26T13:19:30.468Z,748
2017-11-26T13:20:40.224Z,716
2017-11-26T13:21:50.240Z,692
2017-11-26T13:23:00.257Z,656
2017-11-26T13:24:10.270Z,652
2017-11-26T13:25:20.342Z,636
2017-11-26T13:26:30.366Z,632
2017-11-26T13:27:40.374Z,640
2017-11-26T13:28:50.392Z,644
2017-11-26T13:30:00.400Z,608
2017-11-26T13:31:09.867Z,632
2017-11-26T13:32:19.885Z,672
2017-11-26T13:33:29.918Z,632
2017-11-26T13:34:39.944Z,612
2017-11-26T13:35:49.951Z,584
2017-11-26T13:36:59.961Z,528
2017-11-26T13:38:09.523Z,512
2017-11-26T13:39:19.152Z,488
2017-11-26T13:40:29.416Z,456
2017-11-26T13:41:38.984Z,472
2017-11-26T13:42:48.621Z,480
2017-11-26T13:43:58.685Z,436
2017-11-26T13:45:08.511Z,420
2017-11-26T13:46:18.151Z,392
2017-11-26T13:47:28.038Z,368
2017-11-26T13:48:38.114Z,312
2017-11-26T13:49:47.853Z,296
2017-11-26T13:50:57.599Z,304
2017-11-26T13:52:07.624Z,276
2017-11-26T13:53:17.363Z,248
2017-11-26T13:54:27.375Z,236
2017-11-26T13:55:37.392Z,236
2017-11-26T13:56:47.421Z,228
2017-11-26T13:57:57.166Z,212
2017-11-26T13:59:06.952Z,200
2017-11-26T14:00:16.962Z,188
2017-11-26T14:01:26.968Z,188
2017-11-26T14:02:36.702Z,180
2017-11-26T14:03:46.469Z,176
2017-11-26T14:04:56.490Z,168
2017-11-26T14:06:06.232Z,160
2017-11-26T14:07:16.245Z,152
2017-11-26T14:08:26.288Z,156
2017-11-26T14:09:36.313Z,160
2017-11-26T14:10:46.317Z,160
2017-11-26T14:11:56.056Z,148
2017-11-26T14:13:06.078Z,140
2017-11-26T14:14:15.816Z,132
2017-11-26T14:15:25.827Z,128
2017-11-26T14:16:35.835Z,116
2017-11-26T14:17:45.581Z,112
2017-11-26T14:18:55.597Z,112
2017-11-26T14:20:05.632Z,104
2017-11-26T14:21:15.369Z,84
2017-11-26T14:22:25.383Z,76
2017-11-26T14:23:35.459Z,68
2017-11-26T14:24:45.463Z,64
2017-11-26T14:25:55.471Z,64
2017-11-26T14:27:05.227Z,56
2017-11-26T14:28:15.261Z,48
2017-11-26T14:29:24.741Z,48
2017-11-26T14:30:34.768Z,48
2017-11-26T14:31:44.776Z,48
2017-11-26T14:32:54.778Z,44
2017-11-26T14:34:04.818Z,44
2017-11-26T14:35:14.558Z,40
2017-11-26T14:36:24.313Z,36
2017-11-26T14:37:34.104Z,36
2017-11-26T14:38:43.857Z,28
2017-11-26T14:39:53.872Z,28
2017-11-26T14:41:03.613Z,24
2017-11-26T14:42:13.643Z,20
2017-11-26T14:43:23.649Z,16
2017-11-26T14:44:33.667Z,16
2017-11-26T14:45:43.712Z,12
2017-11-26T14:46:53.720Z,12
2017-11-26T14:48:03.722Z,12
2017-11-26T14:49:13.731Z,12
2017-11-26T14:50:23.740Z,12
2017-11-26T14:51:33.481Z,8
2017-11-26T14:52:43.492Z,4
2017-11-26T14:53:53.512Z,4
2017-11-26T14:55:03.528Z,4
2017-11-26T14:56:13.562Z,8
2017-11-26T14:57:23.615Z,4
2017-11-26T14:58:33.634Z,4
2017-11-26T14:59:43.643Z,4
2017-11-26T15:00:53.390Z,4
2017-11-26T15:02:03.405Z,4
2017-11-26T15:03:13.414Z,0
2017-11-26T15:04:23.423Z,0
2017-11-26T15:05:33.430Z,4
2017-11-26T15:06:43.463Z,4
2017-11-26T15:07:53.221Z,0
2017-11-26T15:09:03.240Z,0
2017-11-26T15:10:13.261Z,0
2017-11-26T15:11:23.295Z,0
2017-11-26T15:12:33.304Z,0
2017-11-26T15:13:43.321Z,0
2017-11-26T15:14:53.337Z,0
2017-11-26T15:16:03.370Z,0
2017-11-26T15:17:13.124Z,0
2017-11-26T15:18:23.131Z,0
2017-11-26T15:19:33.137Z,0
2017-11-26T15:20:42.884Z,0
2017-11-26T15:21:52.915Z,0
2017-11-26T15:23:02.944Z,0
2017-11-26T15:24:12.951Z,0
2017-11-26T15:25:22.962Z,0
2017-11-26T15:26:32.986Z,0
2017-11-26T15:27:43.017Z,0
2017-11-26T15:28:53.033Z,0
2017-11-26T15:30:02.770Z,0
2017-11-26T15:31:12.782Z,0
2017-11-26T15:32:22.804Z,0
2017-11-26T15:33:32.829Z,0
2017-11-26T15:34:42.844Z,0
2017-11-26T15:35:52.848Z,0
2017-11-26T15:37:02.889Z,0
2017-11-26T15:38:12.895Z,0
2017-11-26T15:39:22.914Z,0
2017-11-26T15:40:32.936Z,0
2017-11-26T15:41:42.678Z,0
2017-11-26T15:42:52.698Z,0
2017-11-26T15:44:02.725Z,0
2017-11-26T15:45:12.473Z,0
2017-11-26T15:46:22.495Z,0
2017-11-26T15:47:32.240Z,0
2017-11-26T15:48:42.002Z,0
2017-11-26T15:49:52.005Z,0
2017-11-26T15:51:01.753Z,0
2017-11-26T15:52:11.785Z,0
2017-11-26T15:53:21.797Z,0
2017-11-26T15:54:31.817Z,0
2017-11-26T15:55:41.821Z,0
2017-11-26T15:56:51.564Z,0
2017-11-26T15:58:01.314Z,0
2017-11-26T15:59:11.332Z,0
2017-11-26T16:00:21.344Z,0
2017-11-26T16:01:31.367Z,0
2017-11-26T16:02:41.369Z,0
2017-11-26T16:03:51.103Z,0
2017-11-26T16:05:01.108Z,0
2017-11-26T16:06:11.132Z,0
2017-11-26T16:07:21.139Z,0
2017-11-26T16:08:30.880Z,0
2017-11-26T16:09:40.905Z,0
2017-11-26T16:10:50.927Z,0
2017-11-26T16:12:00.940Z,0
2017-11-26T16:13:10.988Z,0
2017-11-26T16:14:21.030Z,0
2017-11-26T16:15:31.038Z,0
2017-11-26T16:16:41.045Z,0
2017-11-26T16:17:51.051Z,0
2017-11-26T16:19:01.063Z,0
2017-11-26T16:20:10.801Z,0
2017-11-26T16:21:20.806Z,0
2017-11-26T16:22:30.830Z,0
2017-11-26T16:23:40.838Z,0
2017-11-26T16:24:50.866Z,0
2017-11-26T16:26:00.608Z,0
2017-11-26T16:27:10.614Z,0
2017-11-26T16:28:20.356Z,0
2017-11-26T16:29:29.554Z,0
2017-11-26T16:30:38.757Z,0
2017-11-26T16:31:48.233Z,0
2017-11-26T16:32:57.426Z,0
2017-11-26T16:34:07.163Z,0